Time,TemperatureF,DewpointF,PressureIn,WindDirection,WindDirectionDegrees,WindSpeedMPH,WindSpeedGustMPH,Humidity,HourlyPrecipIn,Conditions,Clouds,dailyrainin,SoftwareType,DateUTC
2013-04-25 00:01:00,47.2,45.6,30.08,NNW,329,0.0,0.0,94,0.00,RA,,0.00,WeatherDisplay:10.37,2013-04-25 04:01:00,
2013-04-25 00:06:00,46.9,45.5,30.08,NW,320,4.6,4.6,95,0.00,RA,,0.00,WeatherDisplay:10.37,2013-04-25 04:06:00,
2013-04-25 00:11:00,46.7,45.3,30.08,NE,50,0.0,0.0,95,0.00,CLR,,0.00,WeatherDisplay:10.37,2013-04-25 04:11:00,
2013-04-25 00:16:00,46.6,45.2,30.08,NE,41,2.2,2.2,95,0.00,CLR,,0.00,WeatherDisplay:10.37,2013-04-25 04:16:00,
2013-04-25 00:21:00,46.3,44.9,30.08,NNE,30,0.0,0.0,95,0.00,CLR,,0.00,WeatherDisplay:10.37,2013-04-25 04:21:00,
2013-04-25 00:26:00,46.1,44.7,30.09,NE,34,0.0,0.0,95,0.00,CLR,,0.00,WeatherDisplay:10.37,2013-04-25 04:26:00,
2013-04-25 00:31:00,46.0,44.6,30.09,NNW,346,6.9,6.9,95,0.00,CLR,,0.00,WeatherDisplay:10.37,2013-04-25 04:31:00,
2013-04-25 00:36:00,45.8,44.4,30.09,North,351,1.1,1.1,95,0.00,CLR,,0.00,WeatherDisplay:10.37,2013-04-25 04:36:00,
2013-04-25 00:41:00,45.6,44.3,30.09,WSW,255,2.3,2.3,95,0.00,CLR,,0.00,WeatherDisplay:10.37,2013-04-25 04:41:00,
2013-04-25 00:46:00,45.4,44.1,30.09,SW,227,8.1,8.1,95,0.00,CLR,,0.00,WeatherDisplay:10.37,2013-04-25 04:46:00,
2013-04-25 00:51:00,45.1,43.8,30.09,NE,44,2.2,2.2,95,0.00,CLR,,0.00,WeatherDisplay:10.37,2013-04-25 04:51:00,
2013-04-25 00:56:00,44.9,43.6,30.09,NNW,337,3.3,3.3,95,0.00,CLR,,0.00,WeatherDisplay:10.37,2013-04-25 04:56:00,
2013-04-25 01:01:00,44.6,43.3,30.09,NNE,15,9.2,9.2,95,0.00,CLR,,0.00,WeatherDisplay:10.37,2013-04-25 05:01:00,
2013-04-25 01:06:00,44.4,43.1,30.09,WNW,284,6.9,6.9,95,0.00,CLR,,0.00,WeatherDisplay:10.37,2013-04-25 05:06:00,
2013-04-25 01:11:00,44.2,42.9,30.10,WNW,288,9.2,9.2,95,0.00,CLR,,0.00,WeatherDisplay:10.37,2013-04-25 05:11:00,
2013-04-25 01:17:00,44.0,42.7,30.10,South,185,5.8,5.8,95,0.00,CLR,,0.00,WeatherDisplay:10.37,2013-04-25 05:17:00,
2013-04-25 01:22:00,43.9,42.6,30.10,NNW,342,4.6,4.6,95,0.00,CLR,,0.00,WeatherDisplay:10.37,2013-04-25 05:22:00,
2013-04-25 01:27:00,43.7,42.4,30.10,West,268,1.2,0.0,95,0.00,CLR,,0.00,WeatherDisplay:10.37,2013-04-25 05:27:00,
2013-04-25 01:32:00,43.7,42.4,30.10,WNW,301,8.1,8.1,95,0.00,CLR,,0.00,WeatherDisplay:10.37,2013-04-25 05:32:00,
2013-04-25 01:37:00,43.4,41.8,30.10,NW,316,10.4,10.4,94,0.00,CLR,,0.00,WeatherDisplay:10.37,2013-04-25 05:37:00,
2013-04-25 01:42:00,43.3,41.7,30.10,NW,308,6.9,6.9,94,0.00,CLR,,0.00,WeatherDisplay:10.37,2013-04-25 05:42:00,
2013-04-25 01:47:00,43.2,41.6,30.10,NW,308,4.6,4.6,94,0.00,CLR,,0.00,WeatherDisplay:10.37,2013-04-25 05:47:00,
2013-04-25 01:52:00,43.1,41.5,30.10,NW,324,8.1,8.1,94,0.00,CLR,,0.00,WeatherDisplay:10.37,2013-04-25 05:52:00,
2013-04-25 01:57:00,43.0,41.4,30.10,NW,307,9.2,9.2,94,0.00,CLR,,0.00,WeatherDisplay:10.37,2013-04-25 05:57:00,
2013-04-25 02:02:00,42.8,41.2,30.10,WNW,303,10.4,10.4,94,0.00,CLR,,0.00,WeatherDisplay:10.37,2013-04-25 06:02:00,
2013-04-25 02:07:00,42.6,41.0,30.10,North,351,8.7,8.7,94,0.00,CLR,,0.00,WeatherDisplay:10.37,2013-04-25 06:07:00,
2013-04-25 02:12:00,42.4,40.8,30.10,East,81,5.8,5.8,94,0.00,CLR,,0.00,WeatherDisplay:10.37,2013-04-25 06:12:00,
2013-04-25 02:17:00,42.3,41.0,30.10,ESE,106,5.8,5.8,95,0.00,CLR,,0.00,WeatherDisplay:10.37,2013-04-25 06:17:00,
2013-04-25 02:22:00,42.2,40.9,30.09,East,88,5.8,5.8,95,0.00,CLR,,0.00,WeatherDisplay:10.37,2013-04-25 06:22:00,
2013-04-25 02:27:00,42.2,40.9,30.10,SE,131,5.8,5.8,95,0.00,CLR,,0.00,WeatherDisplay:10.37,2013-04-25 06:27:00,
2013-04-25 02:32:00,42.2,40.9,30.10,East,85,4.4,4.4,95,0.00,CLR,,0.00,WeatherDisplay:10.37,2013-04-25 06:32:00,
2013-04-25 02:37:00,42.2,40.9,30.10,ESE,110,1.2,0.0,95,0.00,CLR,,0.00,WeatherDisplay:10.37,2013-04-25 06:37:00,
2013-04-25 02:42:00,42.2,41.1,30.09,East,96,8.1,8.1,96,0.00,,,0.00,WeatherDisplay:10.37,2013-04-25 06:42:00,
2013-04-25 02:47:00,42.1,40.8,30.09,South,181,6.9,6.9,95,0.00,CLR,,0.00,WeatherDisplay:10.37,2013-04-25 06:47:00,
2013-04-25 02:52:00,42.1,41.0,30.10,SE,145,5.4,5.4,96,0.00,,,0.00,WeatherDisplay:10.37,2013-04-25 06:52:00,
2013-04-25 02:57:00,42.0,40.7,30.09,SSW,207,5.8,5.8,95,0.00,CLR,,0.00,WeatherDisplay:10.37,2013-04-25 06:57:00,
2013-04-25 03:02:00,42.0,40.7,30.09,ESE,108,9.2,9.2,95,0.00,CLR,,0.00,WeatherDisplay:10.37,2013-04-25 07:02:00,
2013-04-25 03:07:00,41.9,40.6,30.09,NE,53,5.8,5.8,95,0.00,CLR,,0.00,WeatherDisplay:10.37,2013-04-25 07:07:00,
2013-04-25 03:12:00,41.5,39.9,30.10,ESE,109,5.4,5.4,94,0.00,CLR,,0.00,WeatherDisplay:10.37,2013-04-25 07:12:00,
2013-04-25 03:17:00,41.5,40.2,30.10,ESE,112,8.1,8.1,95,0.00,CLR,,0.00,WeatherDisplay:10.37,2013-04-25 07:17:00,
2013-04-25 03:22:00,41.4,40.1,30.09,NE,46,4.4,4.4,95,0.00,CLR,,0.00,WeatherDisplay:10.37,2013-04-25 07:22:00,
2013-04-25 03:27:00,41.3,39.7,30.10,ENE,59,5.8,5.8,94,0.00,CLR,,0.00,WeatherDisplay:10.37,2013-04-25 07:27:00,
2013-04-25 03:32:00,41.2,39.9,30.10,NE,53,3.5,0.0,95,0.00,CLR,,0.00,WeatherDisplay:10.37,2013-04-25 07:32:00,
2013-04-25 03:37:00,41.2,39.9,30.09,ESE,107,5.8,5.8,95,0.00,CLR,,0.00,WeatherDisplay:10.37,2013-04-25 07:37:00,
2013-04-25 03:42:00,41.2,39.9,30.10,SSE,152,0.0,0.6,95,0.00,CLR,,0.00,WeatherDisplay:10.37,2013-04-25 07:42:00,
2013-04-25 03:47:00,41.1,39.8,30.10,SSE,153,4.6,0.0,95,0.00,CLR,,0.00,WeatherDisplay:10.37,2013-04-25 07:47:00,
2013-04-25 03:52:00,41.0,39.4,30.11,SE,133,8.1,8.1,94,0.00,CLR,,0.00,WeatherDisplay:10.37,2013-04-25 07:52:00,
2013-04-25 03:57:00,40.9,39.6,30.11,South,185,2.3,2.3,95,0.00,CLR,,0.00,WeatherDisplay:10.37,2013-04-25 07:57:00,
2013-04-25 04:02:00,40.9,39.6,30.11,SSW,197,5.8,5.8,95,0.00,CLR,,0.00,WeatherDisplay:10.37,2013-04-25 08:02:00,
2013-04-25 04:07:00,40.9,39.6,30.11,West,281,9.2,9.2,95,0.00,CLR,,0.00,WeatherDisplay:10.37,2013-04-25 08:07:00,
2013-04-25 04:12:00,40.7,38.8,30.11,NNW,330,9.2,9.2,93,0.00,CLR,,0.00,WeatherDisplay:10.37,2013-04-25 08:12:00,
2013-04-25 04:17:00,40.5,38.9,30.12,NW,314,0.0,0.0,94,0.00,CLR,,0.00,WeatherDisplay:10.37,2013-04-25 08:17:00,
2013-04-25 04:22:00,40.4,38.8,30.11,SW,214,4.6,4.6,94,0.00,CLR,,0.00,WeatherDisplay:10.37,2013-04-25 08:22:00,
2013-04-25 04:27:00,40.3,38.7,30.11,WNW,297,4.4,4.4,94,0.00,CLR,,0.00,WeatherDisplay:10.37,2013-04-25 08:27:00,
2013-04-25 04:32:00,40.2,38.6,30.11,NW,306,2.2,2.2,94,0.00,CLR,,0.00,WeatherDisplay:10.37,2013-04-25 08:32:00,
2013-04-25 04:37:00,40.1,38.5,30.11,WSW,239,6.9,6.9,94,0.00,CLR,,0.00,WeatherDisplay:10.37,2013-04-25 08:37:00,
2013-04-25 04:42:00,40.2,38.6,30.11,SW,225,9.2,9.2,94,0.00,CLR,,0.00,WeatherDisplay:10.37,2013-04-25 08:42:00,
2013-04-25 04:47:00,40.1,38.5,30.11,West,267,3.5,5.0,94,0.00,CLR,,0.00,WeatherDisplay:10.37,2013-04-25 08:47:00,
2013-04-25 04:52:00,40.1,38.5,30.11,South,179,2.2,2.2,94,0.00,CLR,,0.00,WeatherDisplay:10.37,2013-04-25 08:52:00,
2013-04-25 04:57:00,39.9,38.3,30.11,SE,124,4.6,0.0,94,0.00,CLR,,0.00,WeatherDisplay:10.37,2013-04-25 08:57:00,
2013-04-25 05:02:00,39.7,37.8,30.11,SE,124,0.0,0.0,93,0.00,CLR,,0.00,WeatherDisplay:10.37,2013-04-25 09:02:00,
2013-04-25 05:07:00,39.6,37.7,30.11,SE,124,1.2,0.0,93,0.00,CLR,,0.00,WeatherDisplay:10.37,2013-04-25 09:07:00,
2013-04-25 05:12:00,39.5,37.4,30.11,SE,124,0.0,0.0,92,0.00,CLR,,0.00,WeatherDisplay:10.37,2013-04-25 09:12:00,
2013-04-25 05:17:00,39.4,37.5,30.12,ESE,121,2.3,2.3,93,0.00,CLR,,0.00,WeatherDisplay:10.37,2013-04-25 09:17:00,
2013-04-25 05:22:00,39.4,37.8,30.12,ENE,64,1.2,1.2,94,0.00,CLR,,0.00,WeatherDisplay:10.37,2013-04-25 09:22:00,
2013-04-25 05:27:00,39.4,37.8,30.12,ENE,64,0.0,0.0,94,0.00,CLR,,0.00,WeatherDisplay:10.37,2013-04-25 09:27:00,
2013-04-25 05:32:00,39.4,37.8,30.12,NE,56,0.0,0.0,94,0.00,CLR,,0.00,WeatherDisplay:10.37,2013-04-25 09:32:00,
2013-04-25 05:37:00,39.2,37.6,30.12,NE,56,0.0,0.0,94,0.00,CLR,,0.00,WeatherDisplay:10.37,2013-04-25 09:37:00,
2013-04-25 05:42:00,39.3,38.0,30.12,NE,56,0.0,0.0,95,0.00,CLR,,0.00,WeatherDisplay:10.37,2013-04-25 09:42:00,
2013-04-25 05:47:00,39.3,38.0,30.12,NE,56,0.0,0.0,95,0.00,CLR,,0.00,WeatherDisplay:10.37,2013-04-25 09:47:00,
2013-04-25 05:52:00,39.3,39.3,30.12,NE,56,1.2,1.2,100,0.00,,,0.00,WeatherDisplay:10.37,2013-04-25 09:52:00,
2013-04-25 05:57:00,39.2,37.9,30.12,NE,56,2.3,2.3,95,0.00,CLR,,0.00,WeatherDisplay:10.37,2013-04-25 09:57:00,
2013-04-25 06:02:00,39.2,37.9,30.12,NE,56,0.0,0.0,95,0.00,CLR,,0.00,WeatherDisplay:10.37,2013-04-25 10:02:00,
2013-04-25 06:07:00,39.1,37.8,30.12,NE,56,1.2,1.2,95,0.00,CLR,,0.00,WeatherDisplay:10.37,2013-04-25 10:07:00,
2013-04-25 06:12:00,39.1,37.8,30.13,NE,55,1.2,0.0,95,0.00,CLR,,0.00,WeatherDisplay:10.37,2013-04-25 10:12:00,
2013-04-25 06:17:00,38.9,37.3,30.13,NW,324,4.6,4.6,94,0.00,CLR,,0.00,WeatherDisplay:10.37,2013-04-25 10:17:00,
2013-04-25 06:22:00,38.8,37.2,30.14,North,3,4.6,4.6,94,0.00,CLR,,0.00,WeatherDisplay:10.37,2013-04-25 10:22:00,
2013-04-25 06:27:00,38.6,37.0,30.14,ENE,69,3.5,3.5,94,0.00,CLR,,0.00,WeatherDisplay:10.37,2013-04-25 10:27:00,
2013-04-25 06:32:00,38.5,36.9,30.14,NE,50,0.0,0.0,94,0.00,CLR,,0.00,WeatherDisplay:10.37,2013-04-25 10:32:00,
2013-04-25 06:37:00,38.3,36.7,30.15,NNE,12,9.2,9.2,94,0.00,CLR,,0.00,WeatherDisplay:10.37,2013-04-25 10:37:00,
2013-04-25 06:42:00,38.2,36.6,30.14,ENE,62,3.5,3.5,94,0.00,CLR,,0.00,WeatherDisplay:10.37,2013-04-25 10:42:00,
2013-04-25 06:47:00,38.1,36.8,30.14,ENE,62,0.0,0.0,95,0.00,CLR,,0.00,WeatherDisplay:10.37,2013-04-25 10:47:00,
2013-04-25 06:52:00,38.0,36.7,30.15,ENE,62,0.0,0.0,95,0.00,CLR,,0.00,WeatherDisplay:10.37,2013-04-25 10:52:00,
2013-04-25 06:57:00,37.9,36.6,30.15,ENE,62,0.0,0.0,95,0.00,CLR,,0.00,WeatherDisplay:10.37,2013-04-25 10:57:00,
2013-04-25 07:02:00,37.9,36.6,30.15,ENE,62,0.0,0.0,95,0.00,CLR,,0.00,WeatherDisplay:10.37,2013-04-25 11:02:00,
2013-04-25 07:07:00,37.9,36.6,30.15,ENE,62,0.0,0.0,95,0.00,CLR,,0.00,WeatherDisplay:10.37,2013-04-25 11:07:00,
2013-04-25 07:12:00,37.9,36.6,30.15,ENE,62,0.0,0.0,95,0.00,CLR,,0.00,WeatherDisplay:10.37,2013-04-25 11:12:00,
2013-04-25 07:17:00,37.8,36.5,30.15,ENE,62,1.2,1.2,95,0.00,CLR,,0.00,WeatherDisplay:10.37,2013-04-25 11:17:00,
2013-04-25 07:22:00,37.9,36.6,30.15,ENE,62,0.0,0.0,95,0.00,CLR,,0.00,WeatherDisplay:10.37,2013-04-25 11:22:00,
2013-04-25 07:27:00,37.9,36.6,30.16,ENE,62,0.0,0.0,95,0.00,CLR,,0.00,WeatherDisplay:10.37,2013-04-25 11:27:00,
2013-04-25 07:32:00,37.9,36.9,30.16,ENE,62,0.0,0.0,96,0.00,,,0.00,WeatherDisplay:10.37,2013-04-25 11:32:00,
2013-04-25 07:37:00,37.9,36.6,30.16,ENE,62,0.0,0.0,95,0.00,CLR,,0.00,WeatherDisplay:10.37,2013-04-25 11:37:00,
2013-04-25 07:42:00,38.0,37.0,30.16,ENE,62,0.0,0.0,96,0.00,,,0.00,WeatherDisplay:10.37,2013-04-25 11:42:00,
2013-04-25 07:47:00,38.1,37.1,30.16,ENE,62,0.0,0.0,96,0.00,,,0.00,WeatherDisplay:10.37,2013-04-25 11:47:00,
2013-04-25 07:52:00,38.1,37.1,30.16,ENE,62,0.0,0.0,96,0.00,,,0.00,WeatherDisplay:10.37,2013-04-25 11:52:00,
2013-04-25 07:58:00,38.1,37.1,30.16,ENE,62,0.0,0.0,96,0.00,,,0.00,WeatherDisplay:10.37,2013-04-25 11:58:00,
2013-04-25 08:03:00,38.1,37.1,30.16,ENE,62,0.0,0.0,96,0.00,,,0.00,WeatherDisplay:10.37,2013-04-25 12:03:00,
2013-04-25 08:08:00,38.3,37.3,30.16,ENE,62,0.0,0.0,96,0.00,,,0.00,WeatherDisplay:10.37,2013-04-25 12:08:00,
2013-04-25 08:13:00,38.3,37.3,30.16,ENE,62,1.2,0.0,96,0.00,,,0.00,WeatherDisplay:10.37,2013-04-25 12:13:00,
2013-04-25 08:18:00,38.4,37.4,30.17,ENE,62,0.0,0.0,96,0.00,,,0.00,WeatherDisplay:10.37,2013-04-25 12:18:00,
2013-04-25 08:23:00,38.5,37.5,30.17,ENE,62,1.2,1.2,96,0.00,,,0.00,WeatherDisplay:10.37,2013-04-25 12:23:00,
2013-04-25 08:28:00,38.6,37.6,30.17,ENE,62,0.0,0.0,96,0.00,,,0.00,WeatherDisplay:10.37,2013-04-25 12:28:00,
2013-04-25 08:33:00,38.7,37.7,30.17,ENE,62,0.0,0.0,96,0.00,,,0.00,WeatherDisplay:10.37,2013-04-25 12:33:00,
2013-04-25 08:38:00,38.7,37.7,30.17,ENE,62,0.0,0.0,96,0.00,,,0.00,WeatherDisplay:10.37,2013-04-25 12:38:00,
2013-04-25 08:43:00,38.7,37.7,30.18,ENE,62,0.0,0.0,96,0.00,,,0.00,WeatherDisplay:10.37,2013-04-25 12:43:00,
2013-04-25 08:48:00,38.7,37.7,30.18,ENE,62,1.2,0.0,96,0.00,,,0.00,WeatherDisplay:10.37,2013-04-25 12:48:00,
2013-04-25 08:53:00,38.8,37.8,30.18,ENE,62,0.0,0.3,96,0.00,,,0.00,WeatherDisplay:10.37,2013-04-25 12:53:00,
2013-04-25 08:58:00,39.0,38.0,30.18,ENE,62,0.0,0.0,96,0.00,,,0.00,WeatherDisplay:10.37,2013-04-25 12:58:00,
2013-04-25 09:03:00,39.4,38.4,30.18,ENE,62,0.0,0.0,96,0.00,,,0.00,WeatherDisplay:10.37,2013-04-25 13:03:00,
2013-04-25 09:08:00,39.9,39.9,30.18,ENE,62,3.5,3.5,100,0.00,,,0.00,WeatherDisplay:10.37,2013-04-25 13:08:00,
2013-04-25 09:13:00,40.4,39.4,30.18,ENE,62,2.3,0.0,96,0.00,,,0.00,WeatherDisplay:10.37,2013-04-25 13:13:00,
2013-04-25 09:18:00,41.0,39.9,30.18,ENE,62,3.5,3.5,96,0.00,,,0.00,WeatherDisplay:10.37,2013-04-25 13:18:00,
2013-04-25 09:23:00,41.6,40.0,30.18,ENE,61,2.3,2.3,94,0.00,CLR,,0.00,WeatherDisplay:10.37,2013-04-25 13:23:00,
2013-04-25 09:28:00,42.2,40.3,30.19,ENE,62,0.0,0.0,93,0.00,CLR,,0.00,WeatherDisplay:10.37,2013-04-25 13:28:00,
2013-04-25 09:33:00,42.8,40.9,30.19,ENE,62,0.0,0.0,93,0.00,CLR,,0.00,WeatherDisplay:10.37,2013-04-25 13:33:00,
2013-04-25 09:38:00,43.3,40.8,30.19,ENE,62,2.3,2.3,91,0.00,CLR,,0.00,WeatherDisplay:10.37,2013-04-25 13:38:00,
2013-04-25 09:43:00,43.7,40.7,30.19,ENE,62,0.0,0.0,89,0.00,CLR,,0.00,WeatherDisplay:10.37,2013-04-25 13:43:00,
2013-04-25 09:48:00,44.2,41.2,30.19,ENE,67,2.3,2.3,89,0.00,CLR,,0.00,WeatherDisplay:10.37,2013-04-25 13:48:00,
2013-04-25 09:53:00,44.6,41.6,30.19,ENE,67,2.3,2.3,89,0.00,CLR,,0.00,WeatherDisplay:10.37,2013-04-25 13:53:00,
2013-04-25 09:58:00,45.0,41.4,30.20,ENE,66,2.2,2.2,87,0.00,CLR,,0.00,WeatherDisplay:10.37,2013-04-25 13:58:00,
2013-04-25 10:03:00,45.4,40.5,30.20,ENE,68,3.5,3.5,83,0.00,CLR,,0.00,WeatherDisplay:10.37,2013-04-25 14:03:00,
2013-04-25 10:08:00,45.8,41.5,30.21,ENE,61,1.2,1.2,85,0.00,CLR,,0.00,WeatherDisplay:10.37,2013-04-25 14:08:00,
2013-04-25 10:13:00,46.2,41.3,30.21,ENE,68,1.2,0.0,83,0.00,CLR,,0.00,WeatherDisplay:10.37,2013-04-25 14:13:00,
2013-04-25 10:18:00,46.6,41.1,30.21,East,79,2.2,2.2,81,0.00,CLR,,0.00,WeatherDisplay:10.37,2013-04-25 14:18:00,
2013-04-25 10:23:00,46.9,40.7,30.21,ENE,69,3.5,3.5,79,0.00,CLR,,0.00,WeatherDisplay:10.37,2013-04-25 14:23:00,
2013-04-25 10:28:00,47.4,40.9,30.21,ENE,62,3.5,3.5,78,0.00,CLR,,0.00,WeatherDisplay:10.37,2013-04-25 14:28:00,
2013-04-25 10:33:00,47.8,41.3,30.22,NNE,22,2.3,0.0,78,0.00,CLR,,0.00,WeatherDisplay:10.37,2013-04-25 14:33:00,
2013-04-25 10:38:00,48.1,42.9,30.22,NNE,33,0.0,0.0,82,0.00,CLR,,0.00,WeatherDisplay:10.37,2013-04-25 14:38:00,
2013-04-25 10:43:00,48.5,42.0,30.22,NNE,33,2.3,0.0,78,0.00,CLR,,0.00,WeatherDisplay:10.37,2013-04-25 14:43:00,
2013-04-25 10:48:00,48.8,43.5,30.23,NE,34,0.0,0.1,82,0.00,CLR,,0.00,WeatherDisplay:10.37,2013-04-25 14:48:00,
2013-04-25 10:53:00,49.2,42.3,30.23,NNE,33,0.0,0.0,77,0.00,CLR,,0.00,WeatherDisplay:10.37,2013-04-25 14:53:00,
2013-04-25 10:58:00,49.6,41.3,30.24,NNE,33,1.1,1.1,73,0.00,CLR,,0.00,WeatherDisplay:10.37,2013-04-25 14:58:00,
2013-04-25 11:03:00,50.0,41.7,30.24,NE,56,1.2,0.0,73,0.00,CLR,,0.00,WeatherDisplay:10.37,2013-04-25 15:03:00,
2013-04-25 11:08:00,50.4,41.7,30.24,NE,42,0.0,0.0,72,0.00,CLR,,0.00,WeatherDisplay:10.37,2013-04-25 15:08:00,
2013-04-25 11:13:00,50.8,42.8,30.24,NE,37,1.2,0.0,74,0.00,CLR,,0.00,WeatherDisplay:10.37,2013-04-25 15:13:00,
2013-04-25 11:18:00,51.2,42.1,30.24,NNE,32,0.0,0.0,71,0.00,CLR,,0.00,WeatherDisplay:10.37,2013-04-25 15:18:00,
2013-04-25 11:23:00,51.5,42.4,30.24,North,1,1.2,0.0,71,0.00,CLR,,0.00,WeatherDisplay:10.37,2013-04-25 15:23:00,
2013-04-25 11:28:00,51.8,43.1,30.24,North,1,0.0,0.6,72,0.00,CLR,,0.00,WeatherDisplay:10.37,2013-04-25 15:28:00,
2013-04-25 11:33:00,52.3,43.5,30.25,North,351,1.2,1.2,72,0.00,CLR,,0.00,WeatherDisplay:10.37,2013-04-25 15:33:00,
2013-04-25 11:38:00,52.6,39.9,30.25,North,351,0.0,0.0,62,0.00,CLR,,0.00,WeatherDisplay:10.37,2013-04-25 15:38:00,
2013-04-25 11:43:00,53.0,41.5,30.25,NNE,21,0.0,0.0,65,0.00,CLR,,0.00,WeatherDisplay:10.37,2013-04-25 15:43:00,
2013-04-25 11:48:00,53.6,42.1,30.25,NNE,21,0.0,0.0,65,0.00,CLR,,0.00,WeatherDisplay:10.37,2013-04-25 15:48:00,
2013-04-25 11:53:00,54.1,43.0,30.25,North,9,0.0,0.0,66,0.00,CLR,,0.00,WeatherDisplay:10.37,2013-04-25 15:53:00,
2013-04-25 11:58:00,54.6,41.8,30.25,NNE,33,1.2,0.0,62,0.00,CLR,,0.00,WeatherDisplay:10.37,2013-04-25 15:58:00,
2013-04-25 12:03:00,55.0,41.4,30.25,NNE,31,1.2,0.0,60,0.00,CLR,,0.00,WeatherDisplay:10.37,2013-04-25 16:03:00,
2013-04-25 12:08:00,55.6,37.2,30.25,NW,316,4.6,4.6,50,0.00,CLR,,0.00,WeatherDisplay:10.37,2013-04-25 16:08:00,
2013-04-25 12:13:00,55.9,34.8,30.25,WNW,301,5.8,5.8,45,0.00,CLR,,0.00,WeatherDisplay:10.37,2013-04-25 16:13:00,
2013-04-25 12:18:00,56.4,34.2,30.25,WNW,302,3.5,3.5,43,0.00,CLR,,0.00,WeatherDisplay:10.37,2013-04-25 16:18:00,
2013-04-25 12:23:00,56.7,27.1,30.25,NW,312,6.9,6.9,32,0.00,CLR,,0.00,WeatherDisplay:10.37,2013-04-25 16:23:00,
2013-04-25 12:28:00,57.2,25.2,30.25,WNW,300,4.6,4.6,29,0.00,CLR,,0.00,WeatherDisplay:10.37,2013-04-25 16:28:00,
2013-04-25 12:33:00,57.7,25.6,30.25,WNW,297,4.6,4.6,29,0.00,CLR,,0.00,WeatherDisplay:10.37,2013-04-25 16:33:00,
2013-04-25 12:38:00,58.0,26.7,30.25,NNW,337,3.5,3.5,30,0.00,CLR,,0.00,WeatherDisplay:10.37,2013-04-25 16:38:00,
2013-04-25 12:43:00,58.4,30.1,30.25,West,266,5.4,5.4,34,0.00,CLR,,0.00,WeatherDisplay:10.37,2013-04-25 16:43:00,
2013-04-25 12:48:00,58.9,27.5,30.26,WNW,298,8.1,8.1,30,0.00,CLR,,0.00,WeatherDisplay:10.37,2013-04-25 16:48:00,
2013-04-25 12:53:00,59.3,27.8,30.26,WNW,288,9.2,9.2,30,0.00,CLR,,0.00,WeatherDisplay:10.37,2013-04-25 16:53:00,
2013-04-25 12:58:00,59.6,28.9,30.26,WNW,294,8.1,8.1,31,0.00,CLR,,0.00,WeatherDisplay:10.37,2013-04-25 16:58:00,
2013-04-25 13:03:00,59.9,36.1,30.26,SW,233,0.0,0.0,41,0.00,CLR,,0.00,WeatherDisplay:10.37,2013-04-25 17:03:00,
2013-04-25 13:08:00,60.3,36.5,30.25,South,181,0.0,0.0,41,0.00,CLR,,0.00,WeatherDisplay:10.37,2013-04-25 17:08:00,
2013-04-25 13:13:00,60.7,30.6,30.26,NW,305,4.6,4.6,32,0.00,CLR,,0.00,WeatherDisplay:10.37,2013-04-25 17:13:00,
2013-04-25 13:18:00,60.9,32.3,30.26,NW,308,8.1,8.1,34,0.00,CLR,,0.00,WeatherDisplay:10.37,2013-04-25 17:18:00,
2013-04-25 13:23:00,61.0,32.4,30.26,NW,314,6.9,6.9,34,0.00,CLR,,0.00,WeatherDisplay:10.37,2013-04-25 17:23:00,
2013-04-25 13:28:00,60.9,34.4,30.26,WNW,293,6.9,6.9,37,0.00,CLR,,0.00,WeatherDisplay:10.37,2013-04-25 17:28:00,
2013-04-25 13:33:00,60.8,35.0,30.26,SW,223,6.9,6.9,38,0.00,CLR,,0.00,WeatherDisplay:10.37,2013-04-25 17:33:00,
2013-04-25 13:38:00,60.7,32.9,30.26,WNW,284,5.8,5.8,35,0.00,CLR,,0.00,WeatherDisplay:10.37,2013-04-25 17:38:00,
2013-04-25 13:43:00,60.6,36.1,30.26,West,268,3.5,3.5,40,0.00,CLR,,0.00,WeatherDisplay:10.37,2013-04-25 17:43:00,
2013-04-25 13:48:00,60.5,34.1,30.25,South,184,4.6,4.6,37,0.00,CLR,,0.00,WeatherDisplay:10.37,2013-04-25 17:48:00,
2013-04-25 13:53:00,60.7,39.2,30.25,WSW,247,6.9,6.9,45,0.00,CLR,,0.00,WeatherDisplay:10.37,2013-04-25 17:53:00,
2013-04-25 13:58:00,60.9,38.2,30.25,WSW,240,2.3,2.3,43,0.00,CLR,,0.00,WeatherDisplay:10.37,2013-04-25 17:58:00,
2013-04-25 14:03:00,61.2,33.3,30.26,WNW,301,8.1,8.1,35,0.00,CLR,,0.00,WeatherDisplay:10.37,2013-04-25 18:03:00,
2013-04-25 14:08:00,61.1,37.2,30.26,WNW,285,1.2,1.2,41,0.00,CLR,,0.00,WeatherDisplay:10.37,2013-04-25 18:08:00,
2013-04-25 14:13:00,61.1,33.2,30.25,WSW,254,10.4,10.4,35,0.00,CLR,,0.00,WeatherDisplay:10.37,2013-04-25 18:13:00,
2013-04-25 14:18:00,61.2,32.6,30.25,NW,306,6.9,6.9,34,0.00,CLR,,0.00,WeatherDisplay:10.37,2013-04-25 18:18:00,
2013-04-25 14:23:00,61.3,31.2,30.26,NW,310,8.1,8.1,32,0.00,CLR,,0.00,WeatherDisplay:10.37,2013-04-25 18:23:00,
2013-04-25 14:28:00,61.3,30.4,30.26,WNW,302,5.8,5.8,31,0.00,CLR,,0.00,WeatherDisplay:10.37,2013-04-25 18:28:00,
2013-04-25 14:33:00,61.3,31.9,30.26,WNW,290,5.8,5.8,33,0.00,CLR,,0.00,WeatherDisplay:10.37,2013-04-25 18:33:00,
2013-04-25 14:38:00,61.3,29.6,30.26,NW,306,5.8,5.8,30,0.00,CLR,,0.00,WeatherDisplay:10.37,2013-04-25 18:38:00,
2013-04-25 14:43:00,61.4,33.5,30.26,WNW,285,5.4,5.4,35,0.00,CLR,,0.00,WeatherDisplay:10.37,2013-04-25 18:43:00,
2013-04-25 14:48:00,61.5,29.7,30.26,WSW,245,10.4,10.4,30,0.00,CLR,,0.00,WeatherDisplay:10.37,2013-04-25 18:48:00,
2013-04-25 14:54:00,61.5,28.9,30.26,West,277,8.1,8.1,29,0.00,CLR,,0.00,WeatherDisplay:10.37,2013-04-25 18:54:00,
2013-04-25 14:59:00,61.6,35.7,30.26,West,263,6.9,6.9,38,0.00,CLR,,0.00,WeatherDisplay:10.37,2013-04-25 18:59:00,
2013-04-25 15:04:00,61.6,32.2,30.26,WSW,248,6.9,6.9,33,0.00,CLR,,0.00,WeatherDisplay:10.37,2013-04-25 19:04:00,
2013-04-25 15:09:00,61.6,32.2,30.26,West,264,9.2,9.2,33,0.00,CLR,,0.00,WeatherDisplay:10.37,2013-04-25 19:09:00,
2013-04-25 15:14:00,61.6,32.2,30.26,West,268,6.9,6.9,33,0.00,CLR,,0.00,WeatherDisplay:10.37,2013-04-25 19:14:00,
2013-04-25 15:19:00,61.8,31.6,30.26,West,262,6.9,6.9,32,0.00,CLR,,0.00,WeatherDisplay:10.37,2013-04-25 19:19:00,
2013-04-25 15:24:00,62.0,29.3,30.26,WNW,285,5.8,5.8,29,0.00,CLR,,0.00,WeatherDisplay:10.37,2013-04-25 19:24:00,
2013-04-25 15:29:00,62.1,30.3,30.25,WSW,241,9.2,9.2,30,0.00,CLR,,0.00,WeatherDisplay:10.37,2013-04-25 19:29:00,
2013-04-25 15:34:00,62.2,30.4,30.25,West,266,9.2,9.2,30,0.00,CLR,,0.00,WeatherDisplay:10.37,2013-04-25 19:34:00,
2013-04-25 15:39:00,62.3,28.7,30.25,WSW,255,9.2,9.2,28,0.00,CLR,,0.00,WeatherDisplay:10.37,2013-04-25 19:39:00,
2013-04-25 15:44:00,62.4,29.7,30.25,WSW,245,12.0,12.0,29,0.00,CLR,,0.00,WeatherDisplay:10.37,2013-04-25 19:44:00,
2013-04-25 15:49:00,62.6,29.9,30.25,WSW,237,8.0,8.0,29,0.00,CLR,,0.00,WeatherDisplay:10.37,2013-04-25 19:49:00,
2013-04-25 15:54:00,62.8,25.4,30.25,West,269,6.9,6.9,24,0.00,CLR,,0.00,WeatherDisplay:10.37,2013-04-25 19:54:00,
2013-04-25 15:59:00,62.9,28.4,30.25,WSW,240,9.2,9.2,27,0.00,CLR,,0.00,WeatherDisplay:10.37,2013-04-25 19:59:00,
2013-04-25 16:04:00,62.9,28.4,30.25,WSW,243,9.2,9.5,27,0.00,CLR,,0.00,WeatherDisplay:10.37,2013-04-25 20:04:00,
2013-04-25 16:09:00,62.9,25.5,30.24,West,275,10.4,10.4,24,0.00,CLR,,0.00,WeatherDisplay:10.37,2013-04-25 20:09:00,
2013-04-25 16:14:00,62.8,28.3,30.24,WSW,245,13.8,13.8,27,0.00,CLR,,0.00,WeatherDisplay:10.37,2013-04-25 20:14:00,
2013-04-25 16:19:00,62.8,28.3,30.24,West,275,3.5,3.5,27,0.00,CLR,,0.00,WeatherDisplay:10.37,2013-04-25 20:19:00,
2013-04-25 16:24:00,62.9,27.5,30.24,SW,224,8.1,8.1,26,0.00,CLR,,0.00,WeatherDisplay:10.37,2013-04-25 20:24:00,
2013-04-25 16:29:00,63.0,29.4,30.24,SW,232,4.0,4.0,28,0.00,CLR,,0.00,WeatherDisplay:10.37,2013-04-25 20:29:00,
2013-04-25 16:34:00,63.1,27.6,30.24,WSW,248,5.8,5.8,26,0.00,CLR,,0.00,WeatherDisplay:10.37,2013-04-25 20:34:00,
2013-04-25 16:39:00,63.2,29.5,30.24,WSW,258,6.5,6.5,28,0.00,CLR,,0.00,WeatherDisplay:10.37,2013-04-25 20:39:00,
2013-04-25 16:44:00,63.3,32.1,30.24,WSW,239,6.9,6.9,31,0.00,CLR,,0.00,WeatherDisplay:10.37,2013-04-25 20:44:00,
2013-04-25 16:49:00,63.4,31.4,30.24,West,267,3.5,3.5,30,0.00,CLR,,0.00,WeatherDisplay:10.37,2013-04-25 20:49:00,
2013-04-25 16:54:00,63.6,29.9,30.24,West,279,9.2,9.2,28,0.00,CLR,,0.00,WeatherDisplay:10.37,2013-04-25 20:54:00,
2013-04-25 16:59:00,63.5,31.5,30.24,NW,306,10.4,10.4,30,0.00,CLR,,0.00,WeatherDisplay:10.37,2013-04-25 20:59:00,
2013-04-25 17:04:00,63.4,30.6,30.24,WSW,243,9.2,9.2,29,0.00,CLR,,0.00,WeatherDisplay:10.37,2013-04-25 21:04:00,
2013-04-25 17:09:00,63.4,31.4,30.24,West,265,4.4,5.3,30,0.00,CLR,,0.00,WeatherDisplay:10.37,2013-04-25 21:09:00,
2013-04-25 17:14:00,63.5,33.1,30.24,SSW,206,10.4,10.4,32,0.00,CLR,,0.00,WeatherDisplay:10.37,2013-04-25 21:14:00,
2013-04-25 17:19:00,63.5,32.3,30.24,WSW,237,8.1,8.9,31,0.00,CLR,,0.00,WeatherDisplay:10.37,2013-04-25 21:19:00,
2013-04-25 17:24:00,63.4,28.8,30.25,WSW,255,11.5,11.5,27,0.00,CLR,,0.00,WeatherDisplay:10.37,2013-04-25 21:24:00,
2013-04-25 17:29:00,63.1,29.4,30.25,West,269,10.4,10.4,28,0.00,CLR,,0.00,WeatherDisplay:10.37,2013-04-25 21:29:00,
2013-04-25 17:34:00,62.7,30.0,30.25,West,275,10.4,10.4,29,0.00,CLR,,0.00,WeatherDisplay:10.37,2013-04-25 21:34:00,
2013-04-25 17:39:00,62.5,28.9,30.25,WSW,250,13.8,13.8,28,0.00,CLR,,0.00,WeatherDisplay:10.37,2013-04-25 21:39:00,
2013-04-25 17:44:00,62.4,28.8,30.25,WSW,246,4.0,4.0,28,0.00,CLR,,0.00,WeatherDisplay:10.37,2013-04-25 21:44:00,
2013-04-25 17:49:00,62.3,27.9,30.25,SW,225,9.2,9.2,27,0.00,CLR,,0.00,WeatherDisplay:10.37,2013-04-25 21:49:00,
2013-04-25 17:54:00,62.2,29.5,30.25,WNW,283,10.4,10.4,29,0.00,CLR,,0.00,WeatherDisplay:10.37,2013-04-25 21:54:00,
2013-04-25 17:59:00,62.1,28.6,30.25,SW,235,3.5,3.5,28,0.00,CLR,,0.00,WeatherDisplay:10.37,2013-04-25 21:59:00,
2013-04-25 18:04:00,61.9,31.7,30.25,SSW,205,6.5,6.5,32,0.00,CLR,,0.00,WeatherDisplay:10.37,2013-04-25 22:04:00,
2013-04-25 18:09:00,62.0,30.2,30.25,SW,228,3.5,3.9,30,0.00,CLR,,0.00,WeatherDisplay:10.37,2013-04-25 22:09:00,
2013-04-25 18:14:00,62.1,30.3,30.26,West,277,3.5,3.5,30,0.00,CLR,,0.00,WeatherDisplay:10.37,2013-04-25 22:14:00,
2013-04-25 18:19:00,62.2,26.9,30.26,NNW,346,9.2,9.2,26,0.00,CLR,,0.00,WeatherDisplay:10.37,2013-04-25 22:19:00,
2013-04-25 18:24:00,61.6,28.1,30.26,NE,54,3.5,3.5,28,0.00,CLR,,0.00,WeatherDisplay:10.37,2013-04-25 22:24:00,
2013-04-25 18:29:00,61.4,32.0,30.26,NW,306,2.3,2.3,33,0.00,CLR,,0.00,WeatherDisplay:10.37,2013-04-25 22:29:00,
2013-04-25 18:34:00,61.3,31.9,30.26,WNW,301,9.2,9.2,33,0.00,CLR,,0.00,WeatherDisplay:10.37,2013-04-25 22:34:00,
2013-04-25 18:39:00,61.0,29.3,30.26,ENE,62,8.1,8.1,30,0.00,CLR,,0.00,WeatherDisplay:10.37,2013-04-25 22:39:00,
2013-04-25 18:44:00,60.4,30.4,30.26,WNW,285,1.2,1.2,32,0.00,CLR,,0.00,WeatherDisplay:10.37,2013-04-25 22:44:00,
2013-04-25 18:49:00,60.3,31.0,30.26,WSW,242,1.2,1.2,33,0.00,CLR,,0.00,WeatherDisplay:10.37,2013-04-25 22:49:00,
2013-04-25 18:58:00,60.4,31.1,30.26,NW,311,5.8,5.8,33,0.00,CLR,,0.00,WeatherDisplay:10.37,2013-04-25 22:58:00,
2013-04-25 19:03:00,60.4,31.1,30.26,WSW,245,6.9,6.9,33,0.00,CLR,,0.00,WeatherDisplay:10.37,2013-04-25 23:03:00,
2013-04-25 19:08:00,60.2,31.0,30.26,SW,234,10.4,10.4,33,0.00,CLR,,0.00,WeatherDisplay:10.37,2013-04-25 23:08:00,
2013-04-25 19:13:00,60.0,31.5,30.27,SW,233,6.9,6.9,34,0.00,CLR,,0.00,WeatherDisplay:10.37,2013-04-25 23:13:00,
2013-04-25 19:18:00,59.7,31.3,30.27,West,272,6.9,6.9,34,0.00,CLR,,0.00,WeatherDisplay:10.37,2013-04-25 23:18:00,
2013-04-25 19:23:00,59.5,32.5,30.27,SW,228,4.0,4.0,36,0.00,CLR,,0.00,WeatherDisplay:10.37,2013-04-25 23:23:00,
2013-04-25 19:28:00,59.1,31.4,30.27,SW,217,4.0,4.0,35,0.00,CLR,,0.00,WeatherDisplay:10.37,2013-04-25 23:28:00,
2013-04-25 19:33:00,58.6,31.7,30.27,WSW,256,4.6,4.6,36,0.00,CLR,,0.00,WeatherDisplay:10.37,2013-04-25 23:33:00,
2013-04-25 19:38:00,58.3,32.8,30.27,SW,235,5.8,5.8,38,0.00,CLR,,0.00,WeatherDisplay:10.37,2013-04-25 23:38:00,
2013-04-25 19:43:00,57.9,31.8,30.27,WSW,243,8.1,8.1,37,0.00,CLR,,0.00,WeatherDisplay:10.37,2013-04-25 23:43:00,
2013-04-25 19:48:00,57.5,31.4,30.27,WSW,248,8.1,8.1,37,0.00,CLR,,0.00,WeatherDisplay:10.37,2013-04-25 23:48:00,
2013-04-25 19:53:00,57.1,31.7,30.27,West,276,5.8,5.8,38,0.00,CLR,,0.00,WeatherDisplay:10.37,2013-04-25 23:53:00,
2013-04-25 19:58:00,56.7,31.4,30.27,WSW,249,6.9,6.9,38,0.00,CLR,,0.00,WeatherDisplay:10.37,2013-04-25 23:58:00,
2013-04-25 20:03:00,56.2,31.5,30.27,NW,308,7.6,7.6,39,0.00,CLR,,0.00,WeatherDisplay:10.37,2013-04-26 00:03:00,
2013-04-25 20:08:00,55.8,31.2,30.27,West,281,4.6,4.6,39,0.00,CLR,,0.00,WeatherDisplay:10.37,2013-04-26 00:08:00,
2013-04-25 20:13:00,55.4,32.1,30.27,WNW,296,8.1,8.1,41,0.00,CLR,,0.00,WeatherDisplay:10.37,2013-04-26 00:13:00,
2013-04-25 20:18:00,55.1,33.0,30.27,SSW,208,4.6,4.6,43,0.00,CLR,,0.00,WeatherDisplay:10.37,2013-04-26 00:18:00,
2013-04-25 20:23:00,54.7,31.4,30.27,South,187,1.1,0.0,41,0.00,CLR,,0.00,WeatherDisplay:10.37,2013-04-26 00:23:00,
2013-04-25 20:28:00,54.3,32.3,30.27,SW,232,6.9,6.9,43,0.00,CLR,,0.00,WeatherDisplay:10.37,2013-04-26 00:28:00,
2013-04-25 20:33:00,53.9,31.9,30.27,WSW,255,1.2,0.0,43,0.00,CLR,,0.00,WeatherDisplay:10.37,2013-04-26 00:33:00,
2013-04-25 20:38:00,53.6,31.6,30.27,SE,130,0.0,0.1,43,0.00,CLR,,0.00,WeatherDisplay:10.37,2013-04-26 00:38:00,
2013-04-25 20:43:00,53.4,32.0,30.28,SE,130,0.0,0.0,44,0.00,CLR,,0.00,WeatherDisplay:10.37,2013-04-26 00:43:00,
2013-04-25 20:48:00,53.1,32.3,30.28,SE,130,0.0,0.0,45,0.00,CLR,,0.00,WeatherDisplay:10.37,2013-04-26 00:48:00,
2013-04-25 20:53:00,53.0,31.6,30.28,East,91,2.3,2.3,44,0.00,CLR,,0.00,WeatherDisplay:10.37,2013-04-26 00:53:00,
2013-04-25 20:58:00,52.7,31.9,30.28,NE,48,4.6,0.0,45,0.00,CLR,,0.00,WeatherDisplay:10.37,2013-04-26 00:58:00,
2013-04-25 21:03:00,52.5,31.2,30.28,NNW,331,4.6,4.6,44,0.00,CLR,,0.00,WeatherDisplay:10.37,2013-04-26 01:03:00,
2013-04-25 21:08:00,52.4,31.7,30.29,North,351,1.2,0.0,45,0.00,CLR,,0.00,WeatherDisplay:10.37,2013-04-26 01:08:00,
2013-04-25 21:13:00,52.2,32.0,30.29,NNE,27,3.5,3.5,46,0.00,CLR,,0.00,WeatherDisplay:10.37,2013-04-26 01:13:00,
2013-04-25 21:18:00,52.1,31.9,30.29,NNE,25,3.5,3.5,46,0.00,CLR,,0.00,WeatherDisplay:10.37,2013-04-26 01:18:00,
2013-04-25 21:23:00,52.0,31.8,30.29,NNE,25,0.0,0.0,46,0.00,CLR,,0.00,WeatherDisplay:10.37,2013-04-26 01:23:00,
2013-04-25 21:28:00,51.9,31.2,30.29,NNE,13,1.2,0.0,45,0.00,CLR,,0.00,WeatherDisplay:10.37,2013-04-26 01:28:00,
2013-04-25 21:33:00,51.8,31.7,30.30,NNW,327,4.6,4.6,46,0.00,CLR,,0.00,WeatherDisplay:10.37,2013-04-26 01:33:00,
2013-04-25 21:38:00,51.8,32.2,30.30,WSW,244,0.0,0.0,47,0.00,CLR,,0.00,WeatherDisplay:10.37,2013-04-26 01:38:00,
2013-04-25 21:43:00,51.7,31.0,30.30,North,2,1.1,0.0,45,0.00,CLR,,0.00,WeatherDisplay:10.37,2013-04-26 01:43:00,
2013-04-25 21:48:00,51.6,30.9,30.30,North,2,0.0,0.0,45,0.00,CLR,,0.00,WeatherDisplay:10.37,2013-04-26 01:48:00,
2013-04-25 21:53:00,51.5,31.4,30.30,North,2,0.0,0.0,46,0.00,CLR,,0.00,WeatherDisplay:10.37,2013-04-26 01:53:00,
2013-04-25 21:58:00,51.4,30.7,30.31,North,2,0.0,0.0,45,0.00,CLR,,0.00,WeatherDisplay:10.37,2013-04-26 01:58:00,
2013-04-25 22:03:00,51.4,30.7,30.31,North,2,0.0,0.0,45,0.00,CLR,,0.00,WeatherDisplay:10.37,2013-04-26 02:03:00,
2013-04-25 22:08:00,51.3,31.2,30.31,North,2,0.0,0.0,46,0.00,CLR,,0.00,WeatherDisplay:10.37,2013-04-26 02:08:00,
2013-04-25 22:13:00,51.1,30.5,30.31,North,2,0.0,0.0,45,0.00,CLR,,0.00,WeatherDisplay:10.37,2013-04-26 02:13:00,
2013-04-25 22:18:00,51.0,30.4,30.31,North,2,1.2,1.2,45,0.00,CLR,,0.00,WeatherDisplay:10.37,2013-04-26 02:18:00,
2013-04-25 22:23:00,50.9,30.8,30.32,North,2,0.0,0.0,46,0.00,CLR,,0.00,WeatherDisplay:10.37,2013-04-26 02:23:00,
2013-04-25 22:28:00,50.8,30.7,30.32,North,2,1.2,1.2,46,0.00,CLR,,0.00,WeatherDisplay:10.37,2013-04-26 02:28:00,
2013-04-25 22:33:00,50.8,29.6,30.32,North,2,0.0,0.0,44,0.00,CLR,,0.00,WeatherDisplay:10.37,2013-04-26 02:33:00,
2013-04-25 22:38:00,50.7,30.1,30.32,North,2,0.0,0.0,45,0.00,CLR,,0.00,WeatherDisplay:10.37,2013-04-26 02:38:00,
2013-04-25 22:43:00,50.5,31.0,30.32,North,2,0.0,0.0,47,0.00,CLR,,0.00,WeatherDisplay:10.37,2013-04-26 02:43:00,
2013-04-25 22:48:00,50.2,30.2,30.32,North,2,0.0,0.0,46,0.00,CLR,,0.00,WeatherDisplay:10.37,2013-04-26 02:48:00,
2013-04-25 22:53:00,49.9,29.9,30.33,North,2,0.0,0.0,46,0.00,CLR,,0.00,WeatherDisplay:10.37,2013-04-26 02:53:00,
2013-04-25 22:58:00,49.7,29.2,30.33,North,2,0.0,0.0,45,0.00,CLR,,0.00,WeatherDisplay:10.37,2013-04-26 02:58:00,
2013-04-25 23:03:00,49.5,29.6,30.33,ENE,69,4.6,4.6,46,0.00,CLR,,0.00,WeatherDisplay:10.37,2013-04-26 03:03:00,
2013-04-25 23:08:00,49.5,30.1,30.33,ENE,69,0.0,0.0,47,0.00,CLR,,0.00,WeatherDisplay:10.37,2013-04-26 03:08:00,
2013-04-25 23:14:00,49.4,30.5,30.33,ENE,69,2.3,2.3,48,0.00,CLR,,0.00,WeatherDisplay:10.37,2013-04-26 03:14:00,
2013-04-25 23:19:00,49.4,30.0,30.33,ENE,69,0.0,0.0,47,0.00,CLR,,0.00,WeatherDisplay:10.37,2013-04-26 03:19:00,
2013-04-25 23:24:00,49.4,30.0,30.33,ENE,69,0.0,0.0,47,0.00,CLR,,0.00,WeatherDisplay:10.37,2013-04-26 03:24:00,
2013-04-25 23:29:00,49.4,30.5,30.33,ENE,69,1.2,1.2,48,0.00,CLR,,0.00,WeatherDisplay:10.37,2013-04-26 03:29:00,
2013-04-25 23:34:00,49.4,30.5,30.32,ENE,69,0.0,0.0,48,0.00,CLR,,0.00,WeatherDisplay:10.37,2013-04-26 03:34:00,
2013-04-25 23:39:00,49.3,30.4,30.32,ENE,69,0.0,0.0,48,0.00,CLR,,0.00,WeatherDisplay:10.37,2013-04-26 03:39:00,
2013-04-25 23:44:00,49.2,30.3,30.33,ENE,69,0.0,0.0,48,0.00,CLR,,0.00,WeatherDisplay:10.37,2013-04-26 03:44:00,
2013-04-25 23:49:00,49.1,30.2,30.33,ENE,69,0.0,0.0,48,0.00,CLR,,0.00,WeatherDisplay:10.37,2013-04-26 03:49:00,
2013-04-25 23:54:00,49.0,30.7,30.33,ENE,69,1.2,0.0,49,0.00,CLR,,0.00,WeatherDisplay:10.37,2013-04-26 03:54:00,
2013-04-25 23:59:00,48.9,30.6,30.33,ENE,69,0.0,0.0,49,0.00,CLR,,0.00,WeatherDisplay:10.37,2013-04-26 03:59:00,